sensor_id;sensor_type;location;lat;lon;timestamp;temperature;humidity
296;DHT22;132;48.770;9.200;2023-04-06T00:00:03;2.70;1.00
296;DHT22;132;48.770;9.200;2023-04-06T00:02:36;2.70;1.00
296;DHT22;132;48.770;9.200;2023-04-06T00:05:03;2.50;1.00
296;DHT22;132;48.770;9.200;2023-04-06T00:07:29;2.80;1.00
296;DHT22;132;48.770;9.200;2023-04-06T00:09:56;2.70;1.00
296;DHT22;132;48.770;9.200;2023-04-06T00:12:22;2.50;1.00
296;DHT22;132;48.770;9.200;2023-04-06T00:14:48;2.80;1.00
296;DHT22;132;48.770;9.200;2023-04-06T00:17:15;3.30;1.00
296;DHT22;132;48.770;9.200;2023-04-06T00:19:42;2.80;1.00
296;DHT22;132;48.770;9.200;2023-04-06T00:22:08;3.10;1.00
296;DHT22;132;48.770;9.200;2023-04-06T00:24:34;2.90;1.00
296;DHT22;132;48.770;9.200;2023-04-06T00:27:01;2.60;1.00
296;DHT22;132;48.770;9.200;2023-04-06T00:29:27;2.30;1.00
296;DHT22;132;48.770;9.200;2023-04-06T00:31:54;3.10;1.00
296;DHT22;132;48.770;9.200;2023-04-06T00:34:21;2.60;1.00
296;DHT22;132;48.770;9.200;2023-04-06T00:36:47;2.90;1.00
296;DHT22;132;48.770;9.200;2023-04-06T00:39:14;2.50;1.00
296;DHT22;132;48.770;9.200;2023-04-06T00:41:46;2.80;1.00
296;DHT22;132;48.770;9.200;2023-04-06T00:44:15;2.40;1.00
296;DHT22;132;48.770;9.200;2023-04-06T00:46:42;2.70;1.00
296;DHT22;132;48.770;9.200;2023-04-06T00:49:08;2.50;1.00
296;DHT22;132;48.770;9.200;2023-04-06T00:51:35;2.70;1.00
296;DHT22;132;48.770;9.200;2023-04-06T00:54:01;3.20;1.00
296;DHT22;132;48.770;9.200;2023-04-06T00:56:31;2.60;1.00
296;DHT22;132;48.770;9.200;2023-04-06T00:58:58;2.90;1.00
296;DHT22;132;48.770;9.200;2023-04-06T01:01:24;2.50;1.00
296;DHT22;132;48.770;9.200;2023-04-06T01:03:53;2.70;1.00
296;DHT22;132;48.770;9.200;2023-04-06T01:06:21;2.50;1.00
296;DHT22;132;48.770;9.200;2023-04-06T01:08:56;3.10;1.00
296;DHT22;132;48.770;9.200;2023-04-06T01:11:25;2.60;1.00
296;DHT22;132;48.770;9.200;2023-04-06T01:13:53;2.80;1.00
296;DHT22;132;48.770;9.200;2023-04-06T01:16:28;2.40;1.00
296;DHT22;132;48.770;9.200;2023-04-06T01:19:10;2.70;1.00
296;DHT22;132;48.770;9.200;2023-04-06T01:21:37;2.40;1.00
296;DHT22;132;48.770;9.200;2023-04-06T01:24:36;2.20;1.00
296;DHT22;132;48.770;9.200;2023-04-06T01:27:10;3.00;1.00
296;DHT22;132;48.770;9.200;2023-04-06T01:29:56;2.40;1.00
296;DHT22;132;48.770;9.200;2023-04-06T01:32:38;2.10;1.00
296;DHT22;132;48.770;9.200;2023-04-06T01:35:06;2.80;1.00
296;DHT22;132;48.770;9.200;2023-04-06T01:37:37;2.00;1.00
296;DHT22;132;48.770;9.200;2023-04-06T01:40:07;2.20;1.00
296;DHT22;132;48.770;9.200;2023-04-06T01:42:41;2.00;1.00
296;DHT22;132;48.770;9.200;2023-04-06T01:45:10;2.00;1.00
296;DHT22;132;48.770;9.200;2023-04-06T01:47:38;2.20;1.00
296;DHT22;132;48.770;9.200;2023-04-06T01:50:05;2.10;1.00
296;DHT22;132;48.770;9.200;2023-04-06T01:52:37;1.60;1.00
296;DHT22;132;48.770;9.200;2023-04-06T01:55:04;1.80;1.00
296;DHT22;132;48.770;9.200;2023-04-06T01:57:56;1.90;1.00
296;DHT22;132;48.770;9.200;2023-04-06T02:00:33;1.80;1.00
296;DHT22;132;48.770;9.200;2023-04-06T02:03:00;1.80;1.00
296;DHT22;132;48.770;9.200;2023-04-06T02:05:30;1.80;1.00
296;DHT22;132;48.770;9.200;2023-04-06T02:07:58;1.90;1.00
296;DHT22;132;48.770;9.200;2023-04-06T02:10:35;1.80;1.00
296;DHT22;132;48.770;9.200;2023-04-06T02:13:10;2.00;1.00
296;DHT22;132;48.770;9.200;2023-04-06T02:15:36;1.50;1.00
296;DHT22;132;48.770;9.200;2023-04-06T02:18:03;2.20;1.00
296;DHT22;132;48.770;9.200;2023-04-06T02:20:29;1.90;1.00
296;DHT22;132;48.770;9.200;2023-04-06T02:22:58;2.00;1.00
296;DHT22;132;48.770;9.200;2023-04-06T02:25:25;1.60;1.00
296;DHT22;132;48.770;9.200;2023-04-06T02:27:52;1.80;1.00
296;DHT22;132;48.770;9.200;2023-04-06T02:30:19;1.40;1.00
296;DHT22;132;48.770;9.200;2023-04-06T02:32:46;1.60;1.00
296;DHT22;132;48.770;9.200;2023-04-06T02:35:13;1.50;1.00
296;DHT22;132;48.770;9.200;2023-04-06T02:37:40;1.60;1.00
296;DHT22;132;48.770;9.200;2023-04-06T02:40:07;1.60;1.00
296;DHT22;132;48.770;9.200;2023-04-06T02:42:34;1.50;1.00
296;DHT22;132;48.770;9.200;2023-04-06T02:45:02;1.40;1.00
296;DHT22;132;48.770;9.200;2023-04-06T02:47:33;1.50;1.00
296;DHT22;132;48.770;9.200;2023-04-06T02:50:00;1.30;1.00
296;DHT22;132;48.770;9.200;2023-04-06T02:52:28;1.40;1.00
296;DHT22;132;48.770;9.200;2023-04-06T02:54:57;2.10;1.00
296;DHT22;132;48.770;9.200;2023-04-06T02:57:28;1.30;1.00
296;DHT22;132;48.770;9.200;2023-04-06T02:59:54;1.40;1.00
296;DHT22;132;48.770;9.200;2023-04-06T03:02:29;2.00;1.00
296;DHT22;132;48.770;9.200;2023-04-06T03:05:04;1.90;1.00
296;DHT22;132;48.770;9.200;2023-04-06T03:07:36;1.40;1.00
296;DHT22;132;48.770;9.200;2023-04-06T03:10:03;1.40;1.00
296;DHT22;132;48.770;9.200;2023-04-06T03:12:32;1.40;1.00
296;DHT22;132;48.770;9.200;2023-04-06T03:15:24;1.30;1.00
296;DHT22;132;48.770;9.200;2023-04-06T03:17:57;1.20;1.00
296;DHT22;132;48.770;9.200;2023-04-06T03:20:35;1.00;1.00
296;DHT22;132;48.770;9.200;2023-04-06T03:23:02;1.30;1.00
296;DHT22;132;48.770;9.200;2023-04-06T03:25:33;1.10;1.00
296;DHT22;132;48.770;9.200;2023-04-06T03:28:03;1.20;1.00
296;DHT22;132;48.770;9.200;2023-04-06T03:30:32;1.00;1.00
296;DHT22;132;48.770;9.200;2023-04-06T03:32:58;1.30;1.00
296;DHT22;132;48.770;9.200;2023-04-06T03:35:28;1.10;1.00
296;DHT22;132;48.770;9.200;2023-04-06T03:37:54;1.30;1.00
296;DHT22;132;48.770;9.200;2023-04-06T03:40:21;1.60;1.00
296;DHT22;132;48.770;9.200;2023-04-06T03:42:48;1.60;1.00
296;DHT22;132;48.770;9.200;2023-04-06T03:45:16;1.20;1.00
296;DHT22;132;48.770;9.200;2023-04-06T03:47:49;1.40;1.00
296;DHT22;132;48.770;9.200;2023-04-06T03:50:16;1.30;1.00
296;DHT22;132;48.770;9.200;2023-04-06T03:52:44;1.30;1.00
296;DHT22;132;48.770;9.200;2023-04-06T03:55:11;1.20;1.00
296;DHT22;132;48.770;9.200;2023-04-06T03:57:38;1.20;1.00
296;DHT22;132;48.770;9.200;2023-04-06T04:00:05;1.20;1.00
296;DHT22;132;48.770;9.200;2023-04-06T04:02:39;1.20;1.00
296;DHT22;132;48.770;9.200;2023-04-06T04:05:06;1.40;1.00
296;DHT22;132;48.770;9.200;2023-04-06T04:07:33;1.20;1.00
296;DHT22;132;48.770;9.200;2023-04-06T04:10:00;1.10;1.00
296;DHT22;132;48.770;9.200;2023-04-06T04:12:27;1.50;1.00
296;DHT22;132;48.770;9.200;2023-04-06T04:14:53;1.80;1.00
296;DHT22;132;48.770;9.200;2023-04-06T04:17:23;2.00;1.00
296;DHT22;132;48.770;9.200;2023-04-06T04:19:50;1.10;1.00
296;DHT22;132;48.770;9.200;2023-04-06T04:22:17;0.30;1.00
296;DHT22;132;48.770;9.200;2023-04-06T04:24:44;1.00;1.00
296;DHT22;132;48.770;9.200;2023-04-06T04:27:13;1.10;1.00
296;DHT22;132;48.770;9.200;2023-04-06T04:29:41;1.00;1.00
296;DHT22;132;48.770;9.200;2023-04-06T04:32:11;1.10;1.00
296;DHT22;132;48.770;9.200;2023-04-06T04:34:38;1.50;1.00
296;DHT22;132;48.770;9.200;2023-04-06T04:37:10;1.20;1.00
296;DHT22;132;48.770;9.200;2023-04-06T04:39:47;1.40;1.00
296;DHT22;132;48.770;9.200;2023-04-06T04:42:14;1.00;1.00
296;DHT22;132;48.770;9.200;2023-04-06T04:44:46;0.70;1.00
296;DHT22;132;48.770;9.200;2023-04-06T04:47:13;1.60;1.00
296;DHT22;132;48.770;9.200;2023-04-06T04:49:44;1.30;1.00
296;DHT22;132;48.770;9.200;2023-04-06T04:52:16;1.10;1.00
296;DHT22;132;48.770;9.200;2023-04-06T04:54:51;0.90;1.00
296;DHT22;132;48.770;9.200;2023-04-06T04:57:26;1.00;1.00
296;DHT22;132;48.770;9.200;2023-04-06T04:59:56;0.90;1.00
296;DHT22;132;48.770;9.200;2023-04-06T05:02:27;1.00;1.00
296;DHT22;132;48.770;9.200;2023-04-06T05:05:11;1.10;1.00
296;DHT22;132;48.770;9.200;2023-04-06T05:07:44;0.80;1.00
296;DHT22;132;48.770;9.200;2023-04-06T05:10:20;1.10;1.00
296;DHT22;132;48.770;9.200;2023-04-06T05:12:55;1.40;1.00
296;DHT22;132;48.770;9.200;2023-04-06T05:15:21;1.30;1.00
296;DHT22;132;48.770;9.200;2023-04-06T05:17:52;1.30;1.00
296;DHT22;132;48.770;9.200;2023-04-06T05:20:24;1.10;1.00
296;DHT22;132;48.770;9.200;2023-04-06T05:22:53;1.60;1.00
296;DHT22;132;48.770;9.200;2023-04-06T05:25:19;1.20;1.00
296;DHT22;132;48.770;9.200;2023-04-06T05:27:49;1.30;1.00
296;DHT22;132;48.770;9.200;2023-04-06T05:30:36;2.00;1.00
296;DHT22;132;48.770;9.200;2023-04-06T05:33:03;1.30;1.00
296;DHT22;132;48.770;9.200;2023-04-06T05:35:42;2.20;1.00
296;DHT22;132;48.770;9.200;2023-04-06T05:38:12;2.70;1.00
296;DHT22;132;48.770;9.200;2023-04-06T05:40:39;1.60;1.00
296;DHT22;132;48.770;9.200;2023-04-06T05:43:09;1.60;1.00
296;DHT22;132;48.770;9.200;2023-04-06T05:45:39;1.90;1.00
296;DHT22;132;48.770;9.200;2023-04-06T05:48:06;1.70;1.00
296;DHT22;132;48.770;9.200;2023-04-06T05:50:33;2.40;1.00
296;DHT22;132;48.770;9.200;2023-04-06T05:53:00;2.00;1.00
296;DHT22;132;48.770;9.200;2023-04-06T05:55:32;2.20;1.00
296;DHT22;132;48.770;9.200;2023-04-06T05:58:10;1.90;1.00
296;DHT22;132;48.770;9.200;2023-04-06T06:00:36;2.00;1.00
296;DHT22;132;48.770;9.200;2023-04-06T06:03:06;2.00;1.00
296;DHT22;132;48.770;9.200;2023-04-06T06:05:35;2.10;1.00
296;DHT22;132;48.770;9.200;2023-04-06T06:08:13;2.60;1.00
296;DHT22;132;48.770;9.200;2023-04-06T06:13:09;2.30;1.00
296;DHT22;132;48.770;9.200;2023-04-06T06:15:36;2.60;1.00
296;DHT22;132;48.770;9.200;2023-04-06T06:18:03;2.40;1.00
296;DHT22;132;48.770;9.200;2023-04-06T06:20:30;2.60;1.00
296;DHT22;132;48.770;9.200;2023-04-06T06:23:00;2.50;1.00
296;DHT22;132;48.770;9.200;2023-04-06T06:25:27;2.80;1.00
296;DHT22;132;48.770;9.200;2023-04-06T06:27:53;2.90;1.00
296;DHT22;132;48.770;9.200;2023-04-06T06:30:20;2.80;1.00
296;DHT22;132;48.770;9.200;2023-04-06T06:32:47;3.50;1.00
296;DHT22;132;48.770;9.200;2023-04-06T06:35:13;2.90;1.00
296;DHT22;132;48.770;9.200;2023-04-06T06:37:40;2.90;1.00
296;DHT22;132;48.770;9.200;2023-04-06T06:40:11;3.20;1.00
296;DHT22;132;48.770;9.200;2023-04-06T06:42:40;3.10;1.00
296;DHT22;132;48.770;9.200;2023-04-06T06:45:19;3.50;1.00
296;DHT22;132;48.770;9.200;2023-04-06T06:47:46;3.60;1.00
296;DHT22;132;48.770;9.200;2023-04-06T06:50:13;3.60;1.00
296;DHT22;132;48.770;9.200;2023-04-06T06:52:40;3.40;1.00
296;DHT22;132;48.770;9.200;2023-04-06T06:55:08;3.60;1.00
296;DHT22;132;48.770;9.200;2023-04-06T06:57:35;3.60;1.00
296;DHT22;132;48.770;9.200;2023-04-06T07:00:02;3.70;1.00
296;DHT22;132;48.770;9.200;2023-04-06T07:02:31;3.80;1.00
296;DHT22;132;48.770;9.200;2023-04-06T07:04:57;4.00;1.00
296;DHT22;132;48.770;9.200;2023-04-06T07:07:24;3.90;1.00
296;DHT22;132;48.770;9.200;2023-04-06T07:09:51;4.00;1.00
296;DHT22;132;48.770;9.200;2023-04-06T07:12:17;4.10;1.00
296;DHT22;132;48.770;9.200;2023-04-06T07:14:43;4.40;1.00
296;DHT22;132;48.770;9.200;2023-04-06T07:17:10;4.30;1.00
296;DHT22;132;48.770;9.200;2023-04-06T07:19:37;4.30;1.00
296;DHT22;132;48.770;9.200;2023-04-06T07:22:03;4.50;1.00
296;DHT22;132;48.770;9.200;2023-04-06T07:24:30;5.20;1.00
296;DHT22;132;48.770;9.200;2023-04-06T07:26:58;4.50;1.00
296;DHT22;132;48.770;9.200;2023-04-06T07:29:25;4.90;1.00
296;DHT22;132;48.770;9.200;2023-04-06T07:31:51;4.80;1.00
296;DHT22;132;48.770;9.200;2023-04-06T07:34:18;4.80;1.00
296;DHT22;132;48.770;9.200;2023-04-06T07:36:44;4.90;1.00
296;DHT22;132;48.770;9.200;2023-04-06T07:39:11;5.10;1.00
296;DHT22;132;48.770;9.200;2023-04-06T07:41:37;5.10;1.00
296;DHT22;132;48.770;9.200;2023-04-06T07:44:04;5.10;1.00
296;DHT22;132;48.770;9.200;2023-04-06T07:46:31;5.20;1.00
296;DHT22;132;48.770;9.200;2023-04-06T07:48:59;5.30;1.00
296;DHT22;132;48.770;9.200;2023-04-06T07:51:29;5.40;1.00
296;DHT22;132;48.770;9.200;2023-04-06T07:53:56;5.40;1.00
296;DHT22;132;48.770;9.200;2023-04-06T07:56:22;6.30;1.00
296;DHT22;132;48.770;9.200;2023-04-06T07:58:49;5.60;1.00
296;DHT22;132;48.770;9.200;2023-04-06T08:01:15;5.60;1.00
296;DHT22;132;48.770;9.200;2023-04-06T08:03:42;5.60;1.00
296;DHT22;132;48.770;9.200;2023-04-06T08:06:08;5.80;1.00
296;DHT22;132;48.770;9.200;2023-04-06T08:08:34;5.90;1.00
296;DHT22;132;48.770;9.200;2023-04-06T08:11:01;6.00;1.00
296;DHT22;132;48.770;9.200;2023-04-06T08:13:28;6.10;1.00
296;DHT22;132;48.770;9.200;2023-04-06T08:15:55;6.10;1.00
296;DHT22;132;48.770;9.200;2023-04-06T08:18:21;6.20;1.00
296;DHT22;132;48.770;9.200;2023-04-06T08:20:48;6.30;1.00
296;DHT22;132;48.770;9.200;2023-04-06T08:23:15;6.40;1.00
296;DHT22;132;48.770;9.200;2023-04-06T08:25:42;6.60;1.00
296;DHT22;132;48.770;9.200;2023-04-06T08:28:08;6.80;1.00
296;DHT22;132;48.770;9.200;2023-04-06T08:30:39;6.70;1.00
296;DHT22;132;48.770;9.200;2023-04-06T08:33:06;6.70;1.00
296;DHT22;132;48.770;9.200;2023-04-06T08:35:32;6.90;1.00
296;DHT22;132;48.770;9.200;2023-04-06T08:37:59;7.00;1.00
296;DHT22;132;48.770;9.200;2023-04-06T08:40:26;7.10;1.00
296;DHT22;132;48.770;9.200;2023-04-06T08:42:55;7.20;1.00
296;DHT22;132;48.770;9.200;2023-04-06T08:45:22;7.30;1.00
296;DHT22;132;48.770;9.200;2023-04-06T08:47:52;7.50;1.00
296;DHT22;132;48.770;9.200;2023-04-06T08:50:20;7.50;1.00
296;DHT22;132;48.770;9.200;2023-04-06T08:52:48;7.60;1.00
296;DHT22;132;48.770;9.200;2023-04-06T08:55:15;7.60;1.00
296;DHT22;132;48.770;9.200;2023-04-06T08:57:42;7.70;1.00
296;DHT22;132;48.770;9.200;2023-04-06T09:00:11;7.80;1.00
296;DHT22;132;48.770;9.200;2023-04-06T09:02:39;8.10;1.00
296;DHT22;132;48.770;9.200;2023-04-06T09:05:09;8.00;1.00
296;DHT22;132;48.770;9.200;2023-04-06T09:07:38;8.20;1.00
296;DHT22;132;48.770;9.200;2023-04-06T09:10:06;8.30;1.00
296;DHT22;132;48.770;9.200;2023-04-06T09:12:33;8.40;1.00
296;DHT22;132;48.770;9.200;2023-04-06T09:15:01;8.50;1.00
296;DHT22;132;48.770;9.200;2023-04-06T09:17:31;8.70;1.00
296;DHT22;132;48.770;9.200;2023-04-06T09:20:00;9.30;1.00
296;DHT22;132;48.770;9.200;2023-04-06T09:22:36;8.80;1.00
296;DHT22;132;48.770;9.200;2023-04-06T09:25:03;9.10;1.00
296;DHT22;132;48.770;9.200;2023-04-06T09:27:34;9.20;1.00
296;DHT22;132;48.770;9.200;2023-04-06T09:30:06;9.30;1.00
296;DHT22;132;48.770;9.200;2023-04-06T09:32:44;9.50;1.00
296;DHT22;132;48.770;9.200;2023-04-06T09:35:11;9.50;1.00
296;DHT22;132;48.770;9.200;2023-04-06T09:37:38;9.60;1.00
296;DHT22;132;48.770;9.200;2023-04-06T09:40:06;9.80;1.00
296;DHT22;132;48.770;9.200;2023-04-06T09:42:34;9.60;1.00
296;DHT22;132;48.770;9.200;2023-04-06T09:45:02;9.80;1.00
296;DHT22;132;48.770;9.200;2023-04-06T09:47:30;9.80;1.00
296;DHT22;132;48.770;9.200;2023-04-06T09:49:58;9.90;1.00
296;DHT22;132;48.770;9.200;2023-04-06T09:52:27;10.20;1.00
296;DHT22;132;48.770;9.200;2023-04-06T09:55:01;10.00;1.00
296;DHT22;132;48.770;9.200;2023-04-06T10:08:08;10.00;1.00
296;DHT22;132;48.770;9.200;2023-04-06T10:10:36;10.10;1.00
296;DHT22;132;48.770;9.200;2023-04-06T10:13:04;10.20;1.00
296;DHT22;132;48.770;9.200;2023-04-06T10:15:31;10.20;1.00
296;DHT22;132;48.770;9.200;2023-04-06T10:18:01;10.20;1.00
296;DHT22;132;48.770;9.200;2023-04-06T10:23:18;10.20;1.00
296;DHT22;132;48.770;9.200;2023-04-06T10:25:56;10.20;1.00
296;DHT22;132;48.770;9.200;2023-04-06T10:28:24;10.30;1.00
296;DHT22;132;48.770;9.200;2023-04-06T10:31:02;10.30;1.00
296;DHT22;132;48.770;9.200;2023-04-06T10:33:30;10.40;1.00
296;DHT22;132;48.770;9.200;2023-04-06T10:35:57;10.50;1.00
296;DHT22;132;48.770;9.200;2023-04-06T10:38:34;10.50;1.00
296;DHT22;132;48.770;9.200;2023-04-06T10:41:05;10.60;1.00
296;DHT22;132;48.770;9.200;2023-04-06T10:43:37;10.60;1.00
296;DHT22;132;48.770;9.200;2023-04-06T10:46:06;10.70;1.00
296;DHT22;132;48.770;9.200;2023-04-06T10:48:44;10.70;1.00
296;DHT22;132;48.770;9.200;2023-04-06T10:51:16;10.80;1.00
296;DHT22;132;48.770;9.200;2023-04-06T10:53:47;10.80;1.00
296;DHT22;132;48.770;9.200;2023-04-06T10:56:15;10.90;1.00
296;DHT22;132;48.770;9.200;2023-04-06T10:58:53;11.00;1.00
296;DHT22;132;48.770;9.200;2023-04-06T11:01:21;11.00;1.00
296;DHT22;132;48.770;9.200;2023-04-06T11:03:50;11.10;1.00
296;DHT22;132;48.770;9.200;2023-04-06T11:06:24;11.20;1.00
296;DHT22;132;48.770;9.200;2023-04-06T11:08:52;11.20;1.00
296;DHT22;132;48.770;9.200;2023-04-06T11:11:21;11.30;1.00
296;DHT22;132;48.770;9.200;2023-04-06T11:13:49;11.40;1.00
296;DHT22;132;48.770;9.200;2023-04-06T11:16:36;11.40;1.00
296;DHT22;132;48.770;9.200;2023-04-06T11:19:04;11.40;1.00
296;DHT22;132;48.770;9.200;2023-04-06T11:24:07;11.30;1.00
296;DHT22;132;48.770;9.200;2023-04-06T11:27:02;11.40;1.00
296;DHT22;132;48.770;9.200;2023-04-06T11:29:30;11.40;1.00
296;DHT22;132;48.770;9.200;2023-04-06T11:32:03;12.20;1.00
296;DHT22;132;48.770;9.200;2023-04-06T11:34:30;11.70;1.00
296;DHT22;132;48.770;9.200;2023-04-06T11:36:58;11.80;1.00
296;DHT22;132;48.770;9.200;2023-04-06T11:39:27;11.60;1.00
296;DHT22;132;48.770;9.200;2023-04-06T11:41:59;11.70;1.00
296;DHT22;132;48.770;9.200;2023-04-06T11:44:40;11.80;1.00
296;DHT22;132;48.770;9.200;2023-04-06T11:47:08;11.90;1.00
296;DHT22;132;48.770;9.200;2023-04-06T11:49:38;12.00;1.00
296;DHT22;132;48.770;9.200;2023-04-06T11:52:22;12.10;1.00
296;DHT22;132;48.770;9.200;2023-04-06T11:54:49;12.50;1.00
296;DHT22;132;48.770;9.200;2023-04-06T11:57:17;12.30;1.00
296;DHT22;132;48.770;9.200;2023-04-06T11:59:44;12.30;1.00
296;DHT22;132;48.770;9.200;2023-04-06T12:02:11;12.50;1.00
296;DHT22;132;48.770;9.200;2023-04-06T12:04:38;12.50;1.00
296;DHT22;132;48.770;9.200;2023-04-06T12:07:05;12.50;1.00
296;DHT22;132;48.770;9.200;2023-04-06T12:09:31;12.60;1.00
296;DHT22;132;48.770;9.200;2023-04-06T12:11:58;12.50;1.00
296;DHT22;132;48.770;9.200;2023-04-06T12:14:24;12.70;1.00
296;DHT22;132;48.770;9.200;2023-04-06T12:16:51;12.60;1.00
296;DHT22;132;48.770;9.200;2023-04-06T12:19:17;12.60;1.00
296;DHT22;132;48.770;9.200;2023-04-06T12:21:44;12.90;1.00
296;DHT22;132;48.770;9.200;2023-04-06T12:24:10;12.70;1.00
296;DHT22;132;48.770;9.200;2023-04-06T12:26:36;12.80;1.00
296;DHT22;132;48.770;9.200;2023-04-06T12:29:03;12.50;1.00
296;DHT22;132;48.770;9.200;2023-04-06T12:31:36;12.80;1.00
296;DHT22;132;48.770;9.200;2023-04-06T12:34:04;12.80;1.00
296;DHT22;132;48.770;9.200;2023-04-06T12:36:31;12.90;1.00
296;DHT22;132;48.770;9.200;2023-04-06T12:38:58;12.90;1.00
296;DHT22;132;48.770;9.200;2023-04-06T12:41:24;12.90;1.00
296;DHT22;132;48.770;9.200;2023-04-06T12:43:51;12.90;1.00
296;DHT22;132;48.770;9.200;2023-04-06T12:46:17;13.00;1.00
296;DHT22;132;48.770;9.200;2023-04-06T12:48:44;13.00;1.00
296;DHT22;132;48.770;9.200;2023-04-06T12:51:10;13.80;1.00
296;DHT22;132;48.770;9.200;2023-04-06T12:53:37;13.20;1.00
296;DHT22;132;48.770;9.200;2023-04-06T12:56:14;13.20;1.00
296;DHT22;132;48.770;9.200;2023-04-06T12:58:40;13.30;1.00
296;DHT22;132;48.770;9.200;2023-04-06T13:01:08;13.30;1.00
296;DHT22;132;48.770;9.200;2023-04-06T13:03:34;13.40;1.00
296;DHT22;132;48.770;9.200;2023-04-06T13:06:01;13.60;1.00
296;DHT22;132;48.770;9.200;2023-04-06T13:08:27;13.40;1.00
296;DHT22;132;48.770;9.200;2023-04-06T13:10:54;13.80;1.00
296;DHT22;132;48.770;9.200;2023-04-06T13:13:28;14.00;1.00
296;DHT22;132;48.770;9.200;2023-04-06T13:16:02;14.20;1.00
296;DHT22;132;48.770;9.200;2023-04-06T13:18:30;14.30;1.00
296;DHT22;132;48.770;9.200;2023-04-06T13:20:57;14.40;1.00
296;DHT22;132;48.770;9.200;2023-04-06T13:23:25;14.40;1.00
296;DHT22;132;48.770;9.200;2023-04-06T13:28:25;14.30;1.00
296;DHT22;132;48.770;9.200;2023-04-06T13:30:53;14.10;1.00
296;DHT22;132;48.770;9.200;2023-04-06T13:33:19;14.30;1.00
296;DHT22;132;48.770;9.200;2023-04-06T13:35:46;14.50;1.00
296;DHT22;132;48.770;9.200;2023-04-06T13:38:13;14.50;1.00
296;DHT22;132;48.770;9.200;2023-04-06T13:40:41;14.40;1.00
296;DHT22;132;48.770;9.200;2023-04-06T13:43:08;15.10;1.00
296;DHT22;132;48.770;9.200;2023-04-06T13:45:34;15.20;1.00
296;DHT22;132;48.770;9.200;2023-04-06T13:48:00;15.40;1.00
296;DHT22;132;48.770;9.200;2023-04-06T13:50:27;15.30;1.00
296;DHT22;132;48.770;9.200;2023-04-06T13:52:54;15.40;1.00
296;DHT22;132;48.770;9.200;2023-04-06T13:55:20;15.40;1.00
296;DHT22;132;48.770;9.200;2023-04-06T13:57:47;15.40;1.00
296;DHT22;132;48.770;9.200;2023-04-06T14:00:13;15.40;1.00
296;DHT22;132;48.770;9.200;2023-04-06T14:02:40;15.30;1.00
296;DHT22;132;48.770;9.200;2023-04-06T14:05:07;15.10;1.00
296;DHT22;132;48.770;9.200;2023-04-06T14:07:34;14.90;1.00
296;DHT22;132;48.770;9.200;2023-04-06T14:10:01;14.90;1.00
296;DHT22;132;48.770;9.200;2023-04-06T14:12:28;14.90;1.00
296;DHT22;132;48.770;9.200;2023-04-06T14:14:54;15.00;1.00
296;DHT22;132;48.770;9.200;2023-04-06T14:17:20;15.10;1.00
296;DHT22;132;48.770;9.200;2023-04-06T14:19:47;14.90;1.00
296;DHT22;132;48.770;9.200;2023-04-06T14:22:14;14.80;1.00
296;DHT22;132;48.770;9.200;2023-04-06T14:24:41;14.80;1.00
296;DHT22;132;48.770;9.200;2023-04-06T14:27:07;14.80;1.00
296;DHT22;132;48.770;9.200;2023-04-06T14:29:34;14.80;1.00
296;DHT22;132;48.770;9.200;2023-04-06T14:32:00;14.90;1.00
296;DHT22;132;48.770;9.200;2023-04-06T14:34:27;15.00;1.00
296;DHT22;132;48.770;9.200;2023-04-06T14:36:53;15.10;1.00
296;DHT22;132;48.770;9.200;2023-04-06T14:39:20;15.20;1.00
296;DHT22;132;48.770;9.200;2023-04-06T14:41:46;15.40;1.00
296;DHT22;132;48.770;9.200;2023-04-06T14:44:16;15.60;1.00
296;DHT22;132;48.770;9.200;2023-04-06T14:46:43;15.90;1.00
296;DHT22;132;48.770;9.200;2023-04-06T14:49:09;15.90;1.00
296;DHT22;132;48.770;9.200;2023-04-06T14:51:35;15.60;1.00
296;DHT22;132;48.770;9.200;2023-04-06T14:54:02;15.50;1.00
296;DHT22;132;48.770;9.200;2023-04-06T14:56:29;15.20;1.00
296;DHT22;132;48.770;9.200;2023-04-06T14:58:58;15.30;1.00
296;DHT22;132;48.770;9.200;2023-04-06T15:01:24;15.30;1.00
296;DHT22;132;48.770;9.200;2023-04-06T15:03:51;15.50;1.00
296;DHT22;132;48.770;9.200;2023-04-06T15:06:17;15.50;1.00
296;DHT22;132;48.770;9.200;2023-04-06T15:08:47;15.30;1.00
296;DHT22;132;48.770;9.200;2023-04-06T15:11:19;15.20;1.00
296;DHT22;132;48.770;9.200;2023-04-06T15:13:46;14.90;1.00
296;DHT22;132;48.770;9.200;2023-04-06T15:16:12;14.80;1.00
296;DHT22;132;48.770;9.200;2023-04-06T15:18:40;14.80;1.00
296;DHT22;132;48.770;9.200;2023-04-06T15:21:06;14.60;1.00
296;DHT22;132;48.770;9.200;2023-04-06T15:23:33;14.60;1.00
296;DHT22;132;48.770;9.200;2023-04-06T15:26:03;14.50;1.00
296;DHT22;132;48.770;9.200;2023-04-06T15:28:29;15.60;1.00
296;DHT22;132;48.770;9.200;2023-04-06T15:30:58;14.40;1.00
296;DHT22;132;48.770;9.200;2023-04-06T15:33:31;14.30;1.00
296;DHT22;132;48.770;9.200;2023-04-06T15:35:58;14.20;1.00
296;DHT22;132;48.770;9.200;2023-04-06T15:38:24;14.10;1.00
296;DHT22;132;48.770;9.200;2023-04-06T15:40:51;14.10;1.00
296;DHT22;132;48.770;9.200;2023-04-06T15:43:18;14.00;1.00
296;DHT22;132;48.770;9.200;2023-04-06T15:45:49;14.20;1.00
296;DHT22;132;48.770;9.200;2023-04-06T15:48:15;13.90;1.00
296;DHT22;132;48.770;9.200;2023-04-06T15:50:42;14.00;1.00
296;DHT22;132;48.770;9.200;2023-04-06T15:53:08;14.00;1.00
296;DHT22;132;48.770;9.200;2023-04-06T15:55:34;13.90;1.00
296;DHT22;132;48.770;9.200;2023-04-06T15:58:01;14.30;1.00
296;DHT22;132;48.770;9.200;2023-04-06T16:00:27;13.80;1.00
296;DHT22;132;48.770;9.200;2023-04-06T16:02:54;13.70;1.00
296;DHT22;132;48.770;9.200;2023-04-06T16:05:22;13.60;1.00
296;DHT22;132;48.770;9.200;2023-04-06T16:07:49;13.50;1.00
296;DHT22;132;48.770;9.200;2023-04-06T16:10:15;13.50;1.00
296;DHT22;132;48.770;9.200;2023-04-06T16:12:41;13.40;1.00
296;DHT22;132;48.770;9.200;2023-04-06T16:15:09;13.40;1.00
296;DHT22;132;48.770;9.200;2023-04-06T16:17:35;13.30;1.00
296;DHT22;132;48.770;9.200;2023-04-06T16:20:02;13.30;1.00
296;DHT22;132;48.770;9.200;2023-04-06T16:22:29;13.30;1.00
296;DHT22;132;48.770;9.200;2023-04-06T16:24:55;13.30;1.00
296;DHT22;132;48.770;9.200;2023-04-06T16:27:22;13.10;1.00
296;DHT22;132;48.770;9.200;2023-04-06T16:29:49;13.10;1.00
296;DHT22;132;48.770;9.200;2023-04-06T16:32:17;13.00;1.00
296;DHT22;132;48.770;9.200;2023-04-06T16:34:44;13.00;1.00
296;DHT22;132;48.770;9.200;2023-04-06T16:37:11;13.00;1.00
296;DHT22;132;48.770;9.200;2023-04-06T16:39:38;12.90;1.00
296;DHT22;132;48.770;9.200;2023-04-06T16:42:05;12.90;1.00
296;DHT22;132;48.770;9.200;2023-04-06T16:44:33;12.80;1.00
296;DHT22;132;48.770;9.200;2023-04-06T16:47:11;12.70;1.00
296;DHT22;132;48.770;9.200;2023-04-06T16:49:37;12.70;1.00
296;DHT22;132;48.770;9.200;2023-04-06T16:52:03;12.50;1.00
296;DHT22;132;48.770;9.200;2023-04-06T16:54:31;12.40;1.00
296;DHT22;132;48.770;9.200;2023-04-06T16:57:00;12.40;1.00
296;DHT22;132;48.770;9.200;2023-04-06T16:59:29;12.30;1.00
296;DHT22;132;48.770;9.200;2023-04-06T17:01:56;12.20;1.00
296;DHT22;132;48.770;9.200;2023-04-06T17:04:23;12.30;1.00
296;DHT22;132;48.770;9.200;2023-04-06T17:06:49;12.40;1.00
296;DHT22;132;48.770;9.200;2023-04-06T17:09:15;12.20;1.00
296;DHT22;132;48.770;9.200;2023-04-06T17:11:42;12.20;1.00
296;DHT22;132;48.770;9.200;2023-04-06T17:14:08;12.00;1.00
296;DHT22;132;48.770;9.200;2023-04-06T17:16:35;11.80;1.00
296;DHT22;132;48.770;9.200;2023-04-06T17:19:01;11.80;1.00
296;DHT22;132;48.770;9.200;2023-04-06T17:21:28;11.80;1.00
296;DHT22;132;48.770;9.200;2023-04-06T17:23:54;11.70;1.00
296;DHT22;132;48.770;9.200;2023-04-06T17:26:21;11.80;1.00
296;DHT22;132;48.770;9.200;2023-04-06T17:28:47;11.70;1.00
296;DHT22;132;48.770;9.200;2023-04-06T17:31:14;11.60;1.00